Muribeca dos Guararapes, Brazil
Current Conditions -  °F | °C
As of 1:00 PM on Thursday 30 Oct 2014 (Local Time) from SBRF Reporting Station
Broken Clouds Broken Clouds  
Wind Chill: 29°   Ceiling: 6000
Heat Index: 32°   Visibility: 6mi
Dew Point: 22°   Wind: 12mph
Humidity: 66%   Direction: 100°E
Pressure: 29.94"   Gusts: NA
Location:  8.15°S, 34.97°W
Report Text: SBRF 301600Z 10010KT 9999 FEW023 BKN060 29/22 Q1014
Loading
Personal Weather Stations






























Interactive Weather Map
Tropical Storm Tracking
New forecast layout! Learn more

10-Day Weather Forecast

Advertisements
Track Severe Weather on mobile